sensor_id;sensor_type;location;lat;lon;timestamp;temperature;humidity
75210;DHT22;63796;53.136;14.882;2023-08-06T02:13:27;16.70;99.90
75210;DHT22;63796;53.136;14.882;2023-08-06T02:15:54;16.80;99.90
75210;DHT22;63796;53.136;14.882;2023-08-06T02:18:22;16.80;99.90
75210;DHT22;63796;53.136;14.882;2023-08-06T02:20:56;16.70;99.90
75210;DHT22;63796;53.136;14.882;2023-08-06T02:23:27;16.70;99.90
75210;DHT22;63796;53.136;14.882;2023-08-06T02:25:58;16.70;99.90
75210;DHT22;63796;53.136;14.882;2023-08-06T02:28:30;16.70;99.90
75210;DHT22;63796;53.136;14.882;2023-08-06T02:30:58;16.60;99.90
75210;DHT22;63796;53.136;14.882;2023-08-06T02:33:26;16.60;99.90
75210;DHT22;63796;53.136;14.882;2023-08-06T02:36:03;16.70;99.90
75210;DHT22;63796;53.136;14.882;2023-08-06T02:38:31;16.60;99.90
75210;DHT22;63796;53.136;14.882;2023-08-06T02:41:01;16.60;99.90
75210;DHT22;63796;53.136;14.882;2023-08-06T02:43:30;16.60;99.90
75210;DHT22;63796;53.136;14.882;2023-08-06T02:45:59;16.60;99.90
75210;DHT22;63796;53.136;14.882;2023-08-06T02:48:27;16.60;99.90
75210;DHT22;63796;53.136;14.882;2023-08-06T02:50:58;16.60;99.90
75210;DHT22;63796;53.136;14.882;2023-08-06T02:53:26;16.50;99.90
75210;DHT22;63796;53.136;14.882;2023-08-06T02:55:54;16.50;99.90
75210;DHT22;63796;53.136;14.882;2023-08-06T02:58:22;16.60;99.90
75210;DHT22;63796;53.136;14.882;2023-08-06T03:01:02;16.60;99.90
75210;DHT22;63796;53.136;14.882;2023-08-06T03:03:31;16.60;99.90
75210;DHT22;63796;53.136;14.882;2023-08-06T03:05:59;16.70;99.90
75210;DHT22;63796;53.136;14.882;2023-08-06T03:08:28;16.60;99.90
75210;DHT22;63796;53.136;14.882;2023-08-06T03:10:55;16.50;99.90
75210;DHT22;63796;53.136;14.882;2023-08-06T03:13:23;16.70;99.90
75210;DHT22;63796;53.136;14.882;2023-08-06T03:15:57;16.60;99.90
75210;DHT22;63796;53.136;14.882;2023-08-06T03:18:26;16.60;99.90
75210;DHT22;63796;53.136;14.882;2023-08-06T03:20:54;16.60;99.90
75210;DHT22;63796;53.136;14.882;2023-08-06T03:23:21;16.70;99.90
75210;DHT22;63796;53.136;14.882;2023-08-06T03:25:49;16.70;99.90
75210;DHT22;63796;53.136;14.882;2023-08-06T03:28:16;16.60;99.90
75210;DHT22;63796;53.136;14.882;2023-08-06T03:30:43;16.70;99.90
75210;DHT22;63796;53.136;14.882;2023-08-06T03:33:11;16.70;99.90
75210;DHT22;63796;53.136;14.882;2023-08-06T03:35:38;16.70;99.90
75210;DHT22;63796;53.136;14.882;2023-08-06T03:38:06;16.70;99.90
75210;DHT22;63796;53.136;14.882;2023-08-06T03:40:34;16.70;99.90
75210;DHT22;63796;53.136;14.882;2023-08-06T03:43:02;16.70;99.90
75210;DHT22;63796;53.136;14.882;2023-08-06T03:45:30;16.60;99.90
75210;DHT22;63796;53.136;14.882;2023-08-06T03:47:57;16.70;99.90
75210;DHT22;63796;53.136;14.882;2023-08-06T03:50:24;16.60;99.90
75210;DHT22;63796;53.136;14.882;2023-08-06T03:52:52;16.60;99.90
75210;DHT22;63796;53.136;14.882;2023-08-06T03:55:19;16.60;99.90
75210;DHT22;63796;53.136;14.882;2023-08-06T03:57:47;16.60;99.90
75210;DHT22;63796;53.136;14.882;2023-08-06T04:00:15;16.60;99.90
75210;DHT22;63796;53.136;14.882;2023-08-06T04:02:42;16.60;99.90
75210;DHT22;63796;53.136;14.882;2023-08-06T04:05:10;16.70;99.90
75210;DHT22;63796;53.136;14.882;2023-08-06T04:07:39;16.60;99.90
75210;DHT22;63796;53.136;14.882;2023-08-06T04:10:06;16.50;99.90
75210;DHT22;63796;53.136;14.882;2023-08-06T04:12:34;16.50;99.90
75210;DHT22;63796;53.136;14.882;2023-08-06T04:15:03;16.50;99.90
75210;DHT22;63796;53.136;14.882;2023-08-06T04:17:31;16.50;99.90
75210;DHT22;63796;53.136;14.882;2023-08-06T04:19:58;16.50;99.90
75210;DHT22;63796;53.136;14.882;2023-08-06T04:22:26;16.60;99.90
75210;DHT22;63796;53.136;14.882;2023-08-06T04:24:53;16.60;99.90
75210;DHT22;63796;53.136;14.882;2023-08-06T04:27:20;16.50;99.90
75210;DHT22;63796;53.136;14.882;2023-08-06T04:29:47;16.60;99.90
75210;DHT22;63796;53.136;14.882;2023-08-06T04:32:15;16.50;99.90
75210;DHT22;63796;53.136;14.882;2023-08-06T04:34:42;16.50;99.90
75210;DHT22;63796;53.136;14.882;2023-08-06T04:37:10;16.60;99.90
75210;DHT22;63796;53.136;14.882;2023-08-06T04:39:37;16.60;99.90
75210;DHT22;63796;53.136;14.882;2023-08-06T04:42:05;16.50;99.90
75210;DHT22;63796;53.136;14.882;2023-08-06T04:44:33;16.50;99.90
75210;DHT22;63796;53.136;14.882;2023-08-06T04:47:00;16.60;99.90
75210;DHT22;63796;53.136;14.882;2023-08-06T04:49:27;16.50;99.90
75210;DHT22;63796;53.136;14.882;2023-08-06T04:51:55;16.50;99.90
75210;DHT22;63796;53.136;14.882;2023-08-06T04:54:22;16.50;99.90
75210;DHT22;63796;53.136;14.882;2023-08-06T04:56:49;16.50;99.90
75210;DHT22;63796;53.136;14.882;2023-08-06T04:59:16;16.50;99.90
75210;DHT22;63796;53.136;14.882;2023-08-06T05:01:44;16.60;99.90
75210;DHT22;63796;53.136;14.882;2023-08-06T05:04:11;16.60;99.90
75210;DHT22;63796;53.136;14.882;2023-08-06T05:06:39;16.60;99.90
75210;DHT22;63796;53.136;14.882;2023-08-06T05:09:07;16.60;99.90
75210;DHT22;63796;53.136;14.882;2023-08-06T05:11:34;16.50;99.90
75210;DHT22;63796;53.136;14.882;2023-08-06T05:14:01;16.50;99.90
75210;DHT22;63796;53.136;14.882;2023-08-06T05:16:29;16.60;99.90
75210;DHT22;63796;53.136;14.882;2023-08-06T05:18:56;16.50;99.90
75210;DHT22;63796;53.136;14.882;2023-08-06T05:21:23;16.50;99.90
75210;DHT22;63796;53.136;14.882;2023-08-06T05:23:51;16.60;99.90
75210;DHT22;63796;53.136;14.882;2023-08-06T05:26:18;16.60;99.90
75210;DHT22;63796;53.136;14.882;2023-08-06T05:28:46;16.70;99.90
75210;DHT22;63796;53.136;14.882;2023-08-06T05:31:13;16.60;99.90
75210;DHT22;63796;53.136;14.882;2023-08-06T05:33:41;16.60;99.90
75210;DHT22;63796;53.136;14.882;2023-08-06T05:36:08;16.50;99.90
75210;DHT22;63796;53.136;14.882;2023-08-06T05:38:36;16.60;99.90
75210;DHT22;63796;53.136;14.882;2023-08-06T05:41:03;16.60;99.90
75210;DHT22;63796;53.136;14.882;2023-08-06T05:43:30;16.50;99.90
75210;DHT22;63796;53.136;14.882;2023-08-06T05:45:58;16.60;99.90
75210;DHT22;63796;53.136;14.882;2023-08-06T05:48:26;16.60;99.90
75210;DHT22;63796;53.136;14.882;2023-08-06T05:50:54;16.50;99.90
75210;DHT22;63796;53.136;14.882;2023-08-06T05:53:22;16.50;99.90
75210;DHT22;63796;53.136;14.882;2023-08-06T05:55:49;16.60;99.90
75210;DHT22;63796;53.136;14.882;2023-08-06T05:58:20;16.60;99.90
75210;DHT22;63796;53.136;14.882;2023-08-06T06:00:47;16.70;99.90
75210;DHT22;63796;53.136;14.882;2023-08-06T06:03:14;16.70;99.90
75210;DHT22;63796;53.136;14.882;2023-08-06T06:05:42;16.60;99.90
75210;DHT22;63796;53.136;14.882;2023-08-06T06:08:09;16.50;99.90
75210;DHT22;63796;53.136;14.882;2023-08-06T06:10:36;16.60;99.90
75210;DHT22;63796;53.136;14.882;2023-08-06T06:13:04;16.50;99.90
75210;DHT22;63796;53.136;14.882;2023-08-06T06:15:35;16.50;99.90
75210;DHT22;63796;53.136;14.882;2023-08-06T06:18:03;16.60;99.90
75210;DHT22;63796;53.136;14.882;2023-08-06T06:20:31;16.70;99.90
75210;DHT22;63796;53.136;14.882;2023-08-06T06:22:59;16.70;99.90
75210;DHT22;63796;53.136;14.882;2023-08-06T06:25:27;16.70;99.90
75210;DHT22;63796;53.136;14.882;2023-08-06T06:27:54;16.80;99.90
75210;DHT22;63796;53.136;14.882;2023-08-06T06:30:22;16.80;99.90
75210;DHT22;63796;53.136;14.882;2023-08-06T06:32:49;16.80;99.90
75210;DHT22;63796;53.136;14.882;2023-08-06T06:35:16;16.80;99.90
75210;DHT22;63796;53.136;14.882;2023-08-06T06:37:45;16.90;99.90
75210;DHT22;63796;53.136;14.882;2023-08-06T06:40:12;16.90;99.90
75210;DHT22;63796;53.136;14.882;2023-08-06T06:42:39;16.90;99.90
75210;DHT22;63796;53.136;14.882;2023-08-06T06:45:07;16.90;99.90
75210;DHT22;63796;53.136;14.882;2023-08-06T06:47:35;16.90;99.90
75210;DHT22;63796;53.136;14.882;2023-08-06T06:50:03;16.90;99.90
75210;DHT22;63796;53.136;14.882;2023-08-06T06:52:30;16.90;99.90
75210;DHT22;63796;53.136;14.882;2023-08-06T06:54:57;17.00;99.90
75210;DHT22;63796;53.136;14.882;2023-08-06T06:57:25;17.10;99.90
75210;DHT22;63796;53.136;14.882;2023-08-06T06:59:53;16.90;99.90
75210;DHT22;63796;53.136;14.882;2023-08-06T07:02:20;17.00;99.90
75210;DHT22;63796;53.136;14.882;2023-08-06T07:04:49;17.10;99.90
75210;DHT22;63796;53.136;14.882;2023-08-06T07:07:17;17.20;99.90
75210;DHT22;63796;53.136;14.882;2023-08-06T07:09:44;17.20;99.90
75210;DHT22;63796;53.136;14.882;2023-08-06T07:12:11;17.10;99.90
75210;DHT22;63796;53.136;14.882;2023-08-06T07:14:39;17.20;99.90
75210;DHT22;63796;53.136;14.882;2023-08-06T07:17:06;17.20;99.90
75210;DHT22;63796;53.136;14.882;2023-08-06T07:19:34;17.40;99.90
75210;DHT22;63796;53.136;14.882;2023-08-06T07:22:01;17.30;99.90
75210;DHT22;63796;53.136;14.882;2023-08-06T07:24:29;17.30;99.90
75210;DHT22;63796;53.136;14.882;2023-08-06T07:26:56;17.30;99.90
75210;DHT22;63796;53.136;14.882;2023-08-06T07:29:24;17.20;99.90
75210;DHT22;63796;53.136;14.882;2023-08-06T07:31:55;17.30;99.90
75210;DHT22;63796;53.136;14.882;2023-08-06T07:34:22;17.40;99.90
75210;DHT22;63796;53.136;14.882;2023-08-06T07:36:50;17.50;99.90
75210;DHT22;63796;53.136;14.882;2023-08-06T07:39:17;17.70;99.90
75210;DHT22;63796;53.136;14.882;2023-08-06T07:41:45;17.60;99.90
75210;DHT22;63796;53.136;14.882;2023-08-06T07:44:12;17.80;99.90
75210;DHT22;63796;53.136;14.882;2023-08-06T07:46:40;17.70;99.90
75210;DHT22;63796;53.136;14.882;2023-08-06T07:49:09;17.50;99.90
75210;DHT22;63796;53.136;14.882;2023-08-06T07:51:38;17.50;99.90
75210;DHT22;63796;53.136;14.882;2023-08-06T07:54:06;17.70;99.90
75210;DHT22;63796;53.136;14.882;2023-08-06T07:56:33;17.90;99.90
75210;DHT22;63796;53.136;14.882;2023-08-06T07:59:03;17.90;99.90
75210;DHT22;63796;53.136;14.882;2023-08-06T08:01:30;17.80;99.90
75210;DHT22;63796;53.136;14.882;2023-08-06T08:03:57;17.90;99.90
75210;DHT22;63796;53.136;14.882;2023-08-06T08:06:25;17.80;99.90
75210;DHT22;63796;53.136;14.882;2023-08-06T08:08:52;17.80;99.90
75210;DHT22;63796;53.136;14.882;2023-08-06T08:11:20;18.00;99.90
75210;DHT22;63796;53.136;14.882;2023-08-06T08:13:47;17.80;99.90
75210;DHT22;63796;53.136;14.882;2023-08-06T08:16:14;17.80;99.90
75210;DHT22;63796;53.136;14.882;2023-08-06T08:18:42;17.70;99.90
75210;DHT22;63796;53.136;14.882;2023-08-06T08:21:09;17.80;99.90
75210;DHT22;63796;53.136;14.882;2023-08-06T08:23:38;17.80;99.90
75210;DHT22;63796;53.136;14.882;2023-08-06T08:26:06;17.60;99.90
75210;DHT22;63796;53.136;14.882;2023-08-06T08:28:33;17.70;99.90
75210;DHT22;63796;53.136;14.882;2023-08-06T08:31:00;17.80;99.90
75210;DHT22;63796;53.136;14.882;2023-08-06T08:33:28;17.70;99.90
75210;DHT22;63796;53.136;14.882;2023-08-06T08:35:55;17.70;99.90
75210;DHT22;63796;53.136;14.882;2023-08-06T08:38:25;17.70;99.90
75210;DHT22;63796;53.136;14.882;2023-08-06T08:40:53;17.80;99.90
75210;DHT22;63796;53.136;14.882;2023-08-06T08:43:21;17.90;99.90
75210;DHT22;63796;53.136;14.882;2023-08-06T08:45:50;17.80;99.90
75210;DHT22;63796;53.136;14.882;2023-08-06T08:48:18;18.00;99.90
75210;DHT22;63796;53.136;14.882;2023-08-06T08:50:48;17.90;99.90
75210;DHT22;63796;53.136;14.882;2023-08-06T08:53:17;17.80;99.90
75210;DHT22;63796;53.136;14.882;2023-08-06T08:55:46;17.60;99.90
75210;DHT22;63796;53.136;14.882;2023-08-06T08:58:15;17.60;99.90
75210;DHT22;63796;53.136;14.882;2023-08-06T09:00:43;17.70;99.90
75210;DHT22;63796;53.136;14.882;2023-08-06T09:03:17;17.70;99.90
75210;DHT22;63796;53.136;14.882;2023-08-06T09:05:45;17.60;99.90
75210;DHT22;63796;53.136;14.882;2023-08-06T09:08:17;17.60;99.90
75210;DHT22;63796;53.136;14.882;2023-08-06T09:10:48;17.50;99.90
75210;DHT22;63796;53.136;14.882;2023-08-06T09:13:16;17.50;99.90
75210;DHT22;63796;53.136;14.882;2023-08-06T09:15:43;17.70;99.90
75210;DHT22;63796;53.136;14.882;2023-08-06T09:18:11;17.70;99.90
75210;DHT22;63796;53.136;14.882;2023-08-06T09:20:39;17.80;99.90
75210;DHT22;63796;53.136;14.882;2023-08-06T09:23:10;17.70;99.90
75210;DHT22;63796;53.136;14.882;2023-08-06T09:25:38;17.80;99.90
75210;DHT22;63796;53.136;14.882;2023-08-06T09:28:09;17.80;99.90
75210;DHT22;63796;53.136;14.882;2023-08-06T09:30:36;17.60;99.90
75210;DHT22;63796;53.136;14.882;2023-08-06T09:33:08;17.60;99.90
75210;DHT22;63796;53.136;14.882;2023-08-06T09:35:37;17.70;99.90
75210;DHT22;63796;53.136;14.882;2023-08-06T09:38:05;17.70;99.90
75210;DHT22;63796;53.136;14.882;2023-08-06T09:40:38;17.60;99.90
75210;DHT22;63796;53.136;14.882;2023-08-06T09:43:06;17.50;99.90
75210;DHT22;63796;53.136;14.882;2023-08-06T09:45:35;17.30;99.90
75210;DHT22;63796;53.136;14.882;2023-08-06T09:48:05;17.30;99.90
75210;DHT22;63796;53.136;14.882;2023-08-06T09:50:37;17.20;99.90
75210;DHT22;63796;53.136;14.882;2023-08-06T09:53:06;17.30;99.90
75210;DHT22;63796;53.136;14.882;2023-08-06T09:55:35;17.30;99.90
75210;DHT22;63796;53.136;14.882;2023-08-06T09:58:03;17.20;99.90
75210;DHT22;63796;53.136;14.882;2023-08-06T10:00:33;17.20;99.90
75210;DHT22;63796;53.136;14.882;2023-08-06T10:03:06;17.20;99.90
75210;DHT22;63796;53.136;14.882;2023-08-06T10:05:35;17.30;99.90
75210;DHT22;63796;53.136;14.882;2023-08-06T10:08:03;17.30;99.90
75210;DHT22;63796;53.136;14.882;2023-08-06T10:10:35;17.40;99.90
75210;DHT22;63796;53.136;14.882;2023-08-06T10:13:03;17.30;99.90
75210;DHT22;63796;53.136;14.882;2023-08-06T10:15:33;17.30;99.90
75210;DHT22;63796;53.136;14.882;2023-08-06T10:18:00;17.40;99.90
75210;DHT22;63796;53.136;14.882;2023-08-06T10:20:32;17.40;99.90
75210;DHT22;63796;53.136;14.882;2023-08-06T10:23:05;17.40;99.90
75210;DHT22;63796;53.136;14.882;2023-08-06T10:25:35;17.40;99.90
75210;DHT22;63796;53.136;14.882;2023-08-06T10:28:11;17.40;99.90
75210;DHT22;63796;53.136;14.882;2023-08-06T10:30:45;17.30;99.90
75210;DHT22;63796;53.136;14.882;2023-08-06T10:33:19;17.20;99.90
75210;DHT22;63796;53.136;14.882;2023-08-06T10:35:48;17.10;99.90
75210;DHT22;63796;53.136;14.882;2023-08-06T10:38:25;17.20;99.90
75210;DHT22;63796;53.136;14.882;2023-08-06T10:43:26;17.20;99.90
75210;DHT22;63796;53.136;14.882;2023-08-06T10:45:56;17.40;99.90
75210;DHT22;63796;53.136;14.882;2023-08-06T10:48:35;17.30;99.90
75210;DHT22;63796;53.136;14.882;2023-08-06T10:51:09;17.30;99.90
75210;DHT22;63796;53.136;14.882;2023-08-06T10:53:41;17.30;99.90
75210;DHT22;63796;53.136;14.882;2023-08-06T10:58:45;17.30;99.90
75210;DHT22;63796;53.136;14.882;2023-08-06T11:01:14;17.30;99.90
75210;DHT22;63796;53.136;14.882;2023-08-06T11:03:43;17.30;99.90
75210;DHT22;63796;53.136;14.882;2023-08-06T11:06:16;17.30;99.90
75210;DHT22;63796;53.136;14.882;2023-08-06T11:08:49;17.40;99.90
75210;DHT22;63796;53.136;14.882;2023-08-06T11:11:17;17.40;99.90
75210;DHT22;63796;53.136;14.882;2023-08-06T11:13:49;17.40;99.90
75210;DHT22;63796;53.136;14.882;2023-08-06T11:16:17;17.30;99.90
75210;DHT22;63796;53.136;14.882;2023-08-06T11:18:46;17.20;99.90
75210;DHT22;63796;53.136;14.882;2023-08-06T11:21:14;17.30;99.90
75210;DHT22;63796;53.136;14.882;2023-08-06T11:23:46;17.40;99.90
75210;DHT22;63796;53.136;14.882;2023-08-06T11:26:18;17.70;99.90
75210;DHT22;63796;53.136;14.882;2023-08-06T11:28:50;17.80;99.90
75210;DHT22;63796;53.136;14.882;2023-08-06T11:31:21;17.80;99.90
75210;DHT22;63796;53.136;14.882;2023-08-06T11:33:50;17.70;99.90
75210;DHT22;63796;53.136;14.882;2023-08-06T11:36:28;17.80;99.90
75210;DHT22;63796;53.136;14.882;2023-08-06T11:38:58;17.60;99.90
75210;DHT22;63796;53.136;14.882;2023-08-06T11:41:29;17.60;99.90
75210;DHT22;63796;53.136;14.882;2023-08-06T11:43:57;17.60;99.90
75210;DHT22;63796;53.136;14.882;2023-08-06T11:46:27;17.50;99.90
75210;DHT22;63796;53.136;14.882;2023-08-06T11:48:58;17.50;99.90
75210;DHT22;63796;53.136;14.882;2023-08-06T11:51:26;17.40;99.90
75210;DHT22;63796;53.136;14.882;2023-08-06T11:53:57;17.40;99.90
75210;DHT22;63796;53.136;14.882;2023-08-06T11:56:25;17.50;99.90
75210;DHT22;63796;53.136;14.882;2023-08-06T11:58:54;17.60;99.90
75210;DHT22;63796;53.136;14.882;2023-08-06T12:01:22;17.50;99.90
75210;DHT22;63796;53.136;14.882;2023-08-06T12:03:50;17.60;99.90
75210;DHT22;63796;53.136;14.882;2023-08-06T12:06:18;17.40;99.90
75210;DHT22;63796;53.136;14.882;2023-08-06T12:08:45;17.20;99.90
75210;DHT22;63796;53.136;14.882;2023-08-06T12:11:20;17.20;99.90
75210;DHT22;63796;53.136;14.882;2023-08-06T12:13:51;17.10;99.90
75210;DHT22;63796;53.136;14.882;2023-08-06T12:16:19;17.20;99.90
75210;DHT22;63796;53.136;14.882;2023-08-06T12:18:47;17.10;99.90
75210;DHT22;63796;53.136;14.882;2023-08-06T12:21:16;17.20;99.90
75210;DHT22;63796;53.136;14.882;2023-08-06T12:23:43;17.20;99.90
75210;DHT22;63796;53.136;14.882;2023-08-06T12:26:11;17.20;99.90
75210;DHT22;63796;53.136;14.882;2023-08-06T12:28:38;17.10;99.90
75210;DHT22;63796;53.136;14.882;2023-08-06T12:31:06;17.10;99.90
75210;DHT22;63796;53.136;14.882;2023-08-06T12:33:33;17.10;99.90
75210;DHT22;63796;53.136;14.882;2023-08-06T12:36:00;17.20;99.90
75210;DHT22;63796;53.136;14.882;2023-08-06T12:38:28;17.10;99.90
75210;DHT22;63796;53.136;14.882;2023-08-06T12:40:59;17.00;99.90
75210;DHT22;63796;53.136;14.882;2023-08-06T12:43:27;16.90;99.90
75210;DHT22;63796;53.136;14.882;2023-08-06T12:45:54;17.10;99.90
75210;DHT22;63796;53.136;14.882;2023-08-06T12:48:21;17.00;99.90
75210;DHT22;63796;53.136;14.882;2023-08-06T12:50:49;16.90;99.90
75210;DHT22;63796;53.136;14.882;2023-08-06T12:53:16;16.90;99.90
75210;DHT22;63796;53.136;14.882;2023-08-06T12:55:44;16.80;99.90
75210;DHT22;63796;53.136;14.882;2023-08-06T12:58:11;16.80;99.90
75210;DHT22;63796;53.136;14.882;2023-08-06T13:00:38;16.70;99.90
75210;DHT22;63796;53.136;14.882;2023-08-06T13:03:06;16.70;99.90
75210;DHT22;63796;53.136;14.882;2023-08-06T13:05:34;16.50;99.90
75210;DHT22;63796;53.136;14.882;2023-08-06T13:08:01;16.40;99.90
75210;DHT22;63796;53.136;14.882;2023-08-06T13:10:29;16.50;99.90
75210;DHT22;63796;53.136;14.882;2023-08-06T13:12:58;16.40;99.90
75210;DHT22;63796;53.136;14.882;2023-08-06T13:15:25;16.60;99.90
75210;DHT22;63796;53.136;14.882;2023-08-06T13:17:53;16.50;99.90
75210;DHT22;63796;53.136;14.882;2023-08-06T13:20:21;16.40;99.90
75210;DHT22;63796;53.136;14.882;2023-08-06T13:22:50;16.30;99.90
75210;DHT22;63796;53.136;14.882;2023-08-06T13:25:20;16.40;99.90
75210;DHT22;63796;53.136;14.882;2023-08-06T13:27:47;16.60;99.90
75210;DHT22;63796;53.136;14.882;2023-08-06T13:30:16;16.60;99.90
75210;DHT22;63796;53.136;14.882;2023-08-06T13:32:45;16.50;99.90
75210;DHT22;63796;53.136;14.882;2023-08-06T13:35:14;16.50;99.90
75210;DHT22;63796;53.136;14.882;2023-08-06T13:37:41;16.40;99.90
75210;DHT22;63796;53.136;14.882;2023-08-06T13:40:09;16.30;99.90
75210;DHT22;63796;53.136;14.882;2023-08-06T13:42:39;16.30;99.90
75210;DHT22;63796;53.136;14.882;2023-08-06T13:45:06;16.40;99.90
75210;DHT22;63796;53.136;14.882;2023-08-06T13:47:34;16.30;99.90
75210;DHT22;63796;53.136;14.882;2023-08-06T13:50:04;16.40;99.90
75210;DHT22;63796;53.136;14.882;2023-08-06T13:52:33;16.40;99.90
75210;DHT22;63796;53.136;14.882;2023-08-06T13:55:02;16.20;99.90
75210;DHT22;63796;53.136;14.882;2023-08-06T13:57:31;16.10;99.90
75210;DHT22;63796;53.136;14.882;2023-08-06T13:59:58;16.10;99.90
75210;DHT22;63796;53.136;14.882;2023-08-06T14:02:26;16.20;99.90
75210;DHT22;63796;53.136;14.882;2023-08-06T14:04:55;16.30;99.90
75210;DHT22;63796;53.136;14.882;2023-08-06T14:07:22;16.30;99.90
75210;DHT22;63796;53.136;14.882;2023-08-06T14:09:50;16.40;99.90
75210;DHT22;63796;53.136;14.882;2023-08-06T14:12:17;16.40;99.90
75210;DHT22;63796;53.136;14.882;2023-08-06T14:14:45;16.40;99.90
75210;DHT22;63796;53.136;14.882;2023-08-06T14:17:12;16.30;99.90
75210;DHT22;63796;53.136;14.882;2023-08-06T14:19:39;16.20;99.90
75210;DHT22;63796;53.136;14.882;2023-08-06T14:22:07;16.20;99.90
75210;DHT22;63796;53.136;14.882;2023-08-06T14:24:34;16.30;99.90
75210;DHT22;63796;53.136;14.882;2023-08-06T14:27:01;16.30;99.90
75210;DHT22;63796;53.136;14.882;2023-08-06T14:29:31;16.40;99.90
75210;DHT22;63796;53.136;14.882;2023-08-06T14:31:58;16.30;99.90
75210;DHT22;63796;53.136;14.882;2023-08-06T14:34:26;16.30;99.90
75210;DHT22;63796;53.136;14.882;2023-08-06T14:36:54;16.30;99.90
75210;DHT22;63796;53.136;14.882;2023-08-06T14:39:22;16.30;99.90
75210;DHT22;63796;53.136;14.882;2023-08-06T14:41:49;16.40;99.90
75210;DHT22;63796;53.136;14.882;2023-08-06T14:44:18;16.40;99.90
75210;DHT22;63796;53.136;14.882;2023-08-06T14:46:46;16.50;99.90
75210;DHT22;63796;53.136;14.882;2023-08-06T14:49:14;16.50;99.90
75210;DHT22;63796;53.136;14.882;2023-08-06T14:51:42;16.50;99.90
75210;DHT22;63796;53.136;14.882;2023-08-06T14:54:09;16.40;99.90
75210;DHT22;63796;53.136;14.882;2023-08-06T14:56:37;16.30;99.90
75210;DHT22;63796;53.136;14.882;2023-08-06T14:59:06;16.40;99.90
75210;DHT22;63796;53.136;14.882;2023-08-06T15:01:33;16.40;99.90
75210;DHT22;63796;53.136;14.882;2023-08-06T15:04:01;16.40;99.90
75210;DHT22;63796;53.136;14.882;2023-08-06T15:06:29;16.30;99.90
75210;DHT22;63796;53.136;14.882;2023-08-06T15:08:56;16.30;99.90
75210;DHT22;63796;53.136;14.882;2023-08-06T15:11:28;16.20;99.90
75210;DHT22;63796;53.136;14.882;2023-08-06T15:13:56;16.20;99.90
75210;DHT22;63796;53.136;14.882;2023-08-06T15:16:25;16.10;99.90
75210;DHT22;63796;53.136;14.882;2023-08-06T15:18:52;16.00;99.90
75210;DHT22;63796;53.136;14.882;2023-08-06T15:21:20;16.10;99.90
75210;DHT22;63796;53.136;14.882;2023-08-06T15:23:47;16.10;99.90
75210;DHT22;63796;53.136;14.882;2023-08-06T15:26:14;16.10;99.90
75210;DHT22;63796;53.136;14.882;2023-08-06T15:28:43;16.00;99.90
75210;DHT22;63796;53.136;14.882;2023-08-06T15:31:11;16.00;99.90
75210;DHT22;63796;53.136;14.882;2023-08-06T15:33:39;16.10;99.90
75210;DHT22;63796;53.136;14.882;2023-08-06T15:36:07;16.10;99.90
75210;DHT22;63796;53.136;14.882;2023-08-06T15:38:34;16.10;99.90
75210;DHT22;63796;53.136;14.882;2023-08-06T15:41:01;16.20;99.90
75210;DHT22;63796;53.136;14.882;2023-08-06T15:43:29;16.30;99.90
75210;DHT22;63796;53.136;14.882;2023-08-06T15:45:57;16.20;99.90
75210;DHT22;63796;53.136;14.882;2023-08-06T15:48:25;16.20;99.90
75210;DHT22;63796;53.136;14.882;2023-08-06T15:50:55;16.10;99.90
75210;DHT22;63796;53.136;14.882;2023-08-06T15:53:23;16.10;99.90
75210;DHT22;63796;53.136;14.882;2023-08-06T15:55:50;16.00;99.90
75210;DHT22;63796;53.136;14.882;2023-08-06T15:58:17;16.00;99.90
75210;DHT22;63796;53.136;14.882;2023-08-06T16:00:45;16.00;99.90
75210;DHT22;63796;53.136;14.882;2023-08-06T16:03:12;16.00;99.90
75210;DHT22;63796;53.136;14.882;2023-08-06T16:05:39;16.00;99.90
75210;DHT22;63796;53.136;14.882;2023-08-06T16:08:07;15.90;99.90
75210;DHT22;63796;53.136;14.882;2023-08-06T16:10:34;15.90;99.90
75210;DHT22;63796;53.136;14.882;2023-08-06T16:13:02;15.90;99.90
75210;DHT22;63796;53.136;14.882;2023-08-06T16:15:30;15.90;99.90
75210;DHT22;63796;53.136;14.882;2023-08-06T16:17:57;15.90;99.90
75210;DHT22;63796;53.136;14.882;2023-08-06T16:20:25;16.00;99.90
75210;DHT22;63796;53.136;14.882;2023-08-06T16:22:53;16.00;99.90
75210;DHT22;63796;53.136;14.882;2023-08-06T16:25:20;15.90;99.90
75210;DHT22;63796;53.136;14.882;2023-08-06T16:27:47;16.00;99.90
75210;DHT22;63796;53.136;14.882;2023-08-06T16:30:16;16.00;99.90
75210;DHT22;63796;53.136;14.882;2023-08-06T16:32:44;16.00;99.90
75210;DHT22;63796;53.136;14.882;2023-08-06T16:35:12;15.90;99.90
75210;DHT22;63796;53.136;14.882;2023-08-06T16:37:39;15.90;99.90
75210;DHT22;63796;53.136;14.882;2023-08-06T16:40:07;15.90;99.90
75210;DHT22;63796;53.136;14.882;2023-08-06T16:42:36;15.90;99.90
75210;DHT22;63796;53.136;14.882;2023-08-06T16:45:03;15.80;99.90
75210;DHT22;63796;53.136;14.882;2023-08-06T16:47:32;15.90;99.90
75210;DHT22;63796;53.136;14.882;2023-08-06T16:49:59;15.70;99.90
75210;DHT22;63796;53.136;14.882;2023-08-06T16:52:27;15.70;99.90
75210;DHT22;63796;53.136;14.882;2023-08-06T16:54:55;15.60;99.90
75210;DHT22;63796;53.136;14.882;2023-08-06T16:57:22;15.60;99.90
75210;DHT22;63796;53.136;14.882;2023-08-06T16:59:49;15.50;99.90
75210;DHT22;63796;53.136;14.882;2023-08-06T17:02:16;15.30;99.90
75210;DHT22;63796;53.136;14.882;2023-08-06T17:04:45;15.30;99.90
75210;DHT22;63796;53.136;14.882;2023-08-06T17:07:12;15.30;99.90
75210;DHT22;63796;53.136;14.882;2023-08-06T17:09:40;15.20;99.90
75210;DHT22;63796;53.136;14.882;2023-08-06T17:12:09;15.20;99.90
75210;DHT22;63796;53.136;14.882;2023-08-06T17:14:38;15.20;99.90
75210;DHT22;63796;53.136;14.882;2023-08-06T17:17:05;15.30;99.90
75210;DHT22;63796;53.136;14.882;2023-08-06T17:19:33;15.20;99.90
75210;DHT22;63796;53.136;14.882;2023-08-06T17:22:03;15.20;99.90
75210;DHT22;63796;53.136;14.882;2023-08-06T17:24:34;15.20;99.90
75210;DHT22;63796;53.136;14.882;2023-08-06T17:27:03;15.10;99.90
75210;DHT22;63796;53.136;14.882;2023-08-06T17:29:33;15.00;99.90
75210;DHT22;63796;53.136;14.882;2023-08-06T17:32:01;15.20;99.90
75210;DHT22;63796;53.136;14.882;2023-08-06T17:34:29;15.10;99.90
75210;DHT22;63796;53.136;14.882;2023-08-06T17:36:57;15.00;99.90
75210;DHT22;63796;53.136;14.882;2023-08-06T17:39:26;15.00;99.90